sensor_id;sensor_type;location;lat;lon;timestamp;pressure;altitude;pressure_sealevel;temperature;humidity
39555;BME280;25231;48.746;9.234;2022-08-11T00:00:09;97112.94;;;20.25;41.09
39555;BME280;25231;48.746;9.234;2022-08-11T00:02:40;97116.91;;;20.28;40.78
39555;BME280;25231;48.746;9.234;2022-08-11T00:05:15;97120.97;;;20.20;41.04
39555;BME280;25231;48.746;9.234;2022-08-11T00:10:16;97118.09;;;20.17;41.17
39555;BME280;25231;48.746;9.234;2022-08-11T00:12:43;97126.88;;;20.12;41.27
39555;BME280;25231;48.746;9.234;2022-08-11T00:15:14;97126.66;;;20.09;41.52
39555;BME280;25231;48.746;9.234;2022-08-11T00:17:41;97116.25;;;20.12;41.37
39555;BME280;25231;48.746;9.234;2022-08-11T00:20:10;97111.38;;;20.19;41.26
39555;BME280;25231;48.746;9.234;2022-08-11T00:22:38;97117.78;;;20.18;41.36
39555;BME280;25231;48.746;9.234;2022-08-11T00:25:15;97112.00;;;20.11;41.56
39555;BME280;25231;48.746;9.234;2022-08-11T00:27:41;97116.59;;;20.01;41.64
39555;BME280;25231;48.746;9.234;2022-08-11T00:30:09;97120.94;;;19.91;41.90
39555;BME280;25231;48.746;9.234;2022-08-11T00:32:36;97113.44;;;19.99;41.79
39555;BME280;25231;48.746;9.234;2022-08-11T00:35:04;97115.31;;;19.98;41.70
39555;BME280;25231;48.746;9.234;2022-08-11T00:37:32;97121.16;;;20.00;41.79
39555;BME280;25231;48.746;9.234;2022-08-11T00:39:58;97114.78;;;19.96;42.04
39555;BME280;25231;48.746;9.234;2022-08-11T00:53:04;97118.63;;;19.80;42.33
39555;BME280;25231;48.746;9.234;2022-08-11T01:18:15;97118.81;;;19.55;43.66
39555;BME280;25231;48.746;9.234;2022-08-11T01:25:11;97114.53;;;19.54;44.25
39555;BME280;25231;48.746;9.234;2022-08-11T01:46:56;97101.88;;;19.30;45.50
39555;BME280;25231;48.746;9.234;2022-08-11T01:49:34;97104.78;;;19.34;45.37
39555;BME280;25231;48.746;9.234;2022-08-11T01:52:24;97096.34;;;19.27;45.57
39555;BME280;25231;48.746;9.234;2022-08-11T01:55:27;97095.78;;;19.30;45.77
39555;BME280;25231;48.746;9.234;2022-08-11T01:58:05;97095.56;;;19.21;45.89
39555;BME280;25231;48.746;9.234;2022-08-11T02:00:44;97097.41;;;19.26;45.83
39555;BME280;25231;48.746;9.234;2022-08-11T02:06:00;97088.38;;;19.22;46.06
39555;BME280;25231;48.746;9.234;2022-08-11T02:22:12;97092.78;;;18.87;47.33
39555;BME280;25231;48.746;9.234;2022-08-11T02:25:03;97084.22;;;19.00;46.82
39555;BME280;25231;48.746;9.234;2022-08-11T02:28:10;97084.56;;;18.84;47.35
39555;BME280;25231;48.746;9.234;2022-08-11T02:30:51;97093.81;;;18.96;47.03
39555;BME280;25231;48.746;9.234;2022-08-11T02:33:47;97083.22;;;18.86;47.32
39555;BME280;25231;48.746;9.234;2022-08-11T02:36:21;97086.63;;;18.97;47.30
39555;BME280;25231;48.746;9.234;2022-08-11T02:38:54;97073.59;;;19.00;47.19
39555;BME280;25231;48.746;9.234;2022-08-11T02:41:36;97076.59;;;18.89;47.67
39555;BME280;25231;48.746;9.234;2022-08-11T02:44:40;97075.81;;;18.83;47.85
39555;BME280;25231;48.746;9.234;2022-08-11T02:47:46;97078.97;;;18.85;47.91
39555;BME280;25231;48.746;9.234;2022-08-11T02:50:40;97075.53;;;18.85;47.86
39555;BME280;25231;48.746;9.234;2022-08-11T02:53:22;97079.56;;;18.72;48.16
39555;BME280;25231;48.746;9.234;2022-08-11T02:58:36;97079.03;;;18.75;48.20
39555;BME280;25231;48.746;9.234;2022-08-11T03:01:14;97075.81;;;18.73;47.95
39555;BME280;25231;48.746;9.234;2022-08-11T03:04:04;97082.22;;;18.72;47.99
39555;BME280;25231;48.746;9.234;2022-08-11T03:06:55;97087.28;;;18.68;48.34
39555;BME280;25231;48.746;9.234;2022-08-11T03:13:03;97082.53;;;18.60;48.58
39555;BME280;25231;48.746;9.234;2022-08-11T03:15:27;97082.50;;;18.50;48.94
39555;BME280;25231;48.746;9.234;2022-08-11T03:18:31;97089.19;;;18.43;49.26
39555;BME280;25231;48.746;9.234;2022-08-11T03:23:47;97089.72;;;18.29;49.89
39555;BME280;25231;48.746;9.234;2022-08-11T03:26:23;97093.72;;;18.32;49.91
39555;BME280;25231;48.746;9.234;2022-08-11T03:29:00;97087.63;;;18.26;50.13
39555;BME280;25231;48.746;9.234;2022-08-11T03:31:33;97095.84;;;18.20;50.57
39555;BME280;25231;48.746;9.234;2022-08-11T03:34:08;97092.66;;;18.18;50.67
39555;BME280;25231;48.746;9.234;2022-08-11T03:39:15;97095.06;;;18.14;50.78
39555;BME280;25231;48.746;9.234;2022-08-11T03:47:16;97100.88;;;18.06;51.02
39555;BME280;25231;48.746;9.234;2022-08-11T03:53:07;97100.88;;;18.01;51.11
39555;BME280;25231;48.746;9.234;2022-08-11T04:10:00;97101.44;;;17.98;51.51
39555;BME280;25231;48.746;9.234;2022-08-11T04:30:11;97088.69;;;17.95;51.52
39555;BME280;25231;48.746;9.234;2022-08-11T04:41:19;97102.47;;;18.02;51.57
39555;BME280;25231;48.746;9.234;2022-08-11T04:47:09;97105.94;;;18.08;51.52
39555;BME280;25231;48.746;9.234;2022-08-11T04:50:02;97108.06;;;18.11;51.71
39555;BME280;25231;48.746;9.234;2022-08-11T04:53:21;97104.34;;;18.07;51.77
39555;BME280;25231;48.746;9.234;2022-08-11T04:56:13;97105.94;;;18.13;51.63
39555;BME280;25231;48.746;9.234;2022-08-11T05:11:31;97110.31;;;18.88;49.56
39555;BME280;25231;48.746;9.234;2022-08-11T05:14:23;97110.44;;;19.17;48.76
39555;BME280;25231;48.746;9.234;2022-08-11T05:17:13;97107.91;;;19.51;48.36
39555;BME280;25231;48.746;9.234;2022-08-11T05:19:58;97107.53;;;19.68;47.76
39555;BME280;25231;48.746;9.234;2022-08-11T05:22:47;97115.28;;;19.64;47.95
39555;BME280;25231;48.746;9.234;2022-08-11T05:25:34;97111.22;;;19.77;47.37
39555;BME280;25231;48.746;9.234;2022-08-11T05:31:11;97113.38;;;19.70;47.77
39555;BME280;25231;48.746;9.234;2022-08-11T05:34:04;97113.88;;;19.77;47.75
39555;BME280;25231;48.746;9.234;2022-08-11T05:36:53;97117.25;;;19.87;47.33
39555;BME280;25231;48.746;9.234;2022-08-11T05:39:23;97112.41;;;19.95;47.56
39555;BME280;25231;48.746;9.234;2022-08-11T05:42:09;97106.47;;;20.37;46.35
39555;BME280;25231;48.746;9.234;2022-08-11T05:44:57;97107.97;;;20.14;47.22
39555;BME280;25231;48.746;9.234;2022-08-11T05:47:47;97110.91;;;20.12;47.39
39555;BME280;25231;48.746;9.234;2022-08-11T05:50:32;97113.47;;;20.27;47.00
39555;BME280;25231;48.746;9.234;2022-08-11T05:53:16;97120.94;;;20.54;46.62
39555;BME280;25231;48.746;9.234;2022-08-11T05:56:04;97113.66;;;20.36;46.67
39555;BME280;25231;48.746;9.234;2022-08-11T05:58:55;97121.78;;;20.79;46.16
39555;BME280;25231;48.746;9.234;2022-08-11T06:01:26;97115.31;;;20.61;46.53
39555;BME280;25231;48.746;9.234;2022-08-11T06:03:55;97113.63;;;21.12;45.85
39555;BME280;25231;48.746;9.234;2022-08-11T06:06:46;97116.72;;;21.01;45.66
39555;BME280;25231;48.746;9.234;2022-08-11T06:09:20;97110.88;;;20.99;46.29
39555;BME280;25231;48.746;9.234;2022-08-11T06:11:46;97115.72;;;20.73;46.51
39555;BME280;25231;48.746;9.234;2022-08-11T06:14:12;97118.38;;;21.21;45.84
39555;BME280;25231;48.746;9.234;2022-08-11T06:16:40;97108.59;;;21.11;45.72
39555;BME280;25231;48.746;9.234;2022-08-11T06:19:07;97116.19;;;20.99;46.07
39555;BME280;25231;48.746;9.234;2022-08-11T06:21:33;97108.63;;;20.34;46.91
39555;BME280;25231;48.746;9.234;2022-08-11T06:24:03;97126.00;;;20.80;46.48
39555;BME280;25231;48.746;9.234;2022-08-11T06:26:29;97120.31;;;21.15;45.85
39555;BME280;25231;48.746;9.234;2022-08-11T06:28:56;97122.88;;;20.96;45.94
39555;BME280;25231;48.746;9.234;2022-08-11T06:31:24;97126.50;;;21.29;45.67
39555;BME280;25231;48.746;9.234;2022-08-11T06:36:54;97117.50;;;21.63;44.94
39555;BME280;25231;48.746;9.234;2022-08-11T06:39:39;97129.78;;;20.79;46.25
39555;BME280;25231;48.746;9.234;2022-08-11T06:42:12;97127.69;;;21.23;45.97
39555;BME280;25231;48.746;9.234;2022-08-11T06:44:44;97126.28;;;21.02;45.80
39555;BME280;25231;48.746;9.234;2022-08-11T06:47:14;97122.09;;;21.20;45.63
39555;BME280;25231;48.746;9.234;2022-08-11T06:49:44;97121.28;;;21.43;44.56
39555;BME280;25231;48.746;9.234;2022-08-11T06:52:31;97123.22;;;22.12;43.62
39555;BME280;25231;48.746;9.234;2022-08-11T06:55:00;97121.78;;;22.33;43.63
39555;BME280;25231;48.746;9.234;2022-08-11T06:57:33;97127.50;;;22.27;43.49
39555;BME280;25231;48.746;9.234;2022-08-11T07:00:18;97120.44;;;22.63;42.96
39555;BME280;25231;48.746;9.234;2022-08-11T07:03:11;97119.50;;;22.73;42.44
39555;BME280;25231;48.746;9.234;2022-08-11T07:05:48;97132.75;;;22.00;43.74
39555;BME280;25231;48.746;9.234;2022-08-11T07:14:32;97123.06;;;21.85;44.10
39555;BME280;25231;48.746;9.234;2022-08-11T07:17:20;97121.00;;;22.33;44.13
39555;BME280;25231;48.746;9.234;2022-08-11T07:19:55;97122.44;;;22.85;43.19
39555;BME280;25231;48.746;9.234;2022-08-11T07:22:40;97123.03;;;22.22;43.62
39555;BME280;25231;48.746;9.234;2022-08-11T07:25:27;97119.03;;;22.38;43.58
39555;BME280;25231;48.746;9.234;2022-08-11T07:28:22;97115.09;;;22.50;42.94
39555;BME280;25231;48.746;9.234;2022-08-11T07:31:09;97114.25;;;22.95;42.50
39555;BME280;25231;48.746;9.234;2022-08-11T07:33:52;97121.19;;;22.83;42.77
39555;BME280;25231;48.746;9.234;2022-08-11T07:36:24;97110.06;;;22.62;43.06
39555;BME280;25231;48.746;9.234;2022-08-11T07:38:53;97106.78;;;23.47;40.97
39555;BME280;25231;48.746;9.234;2022-08-11T07:41:22;97102.38;;;23.01;41.45
39555;BME280;25231;48.746;9.234;2022-08-11T07:43:52;97111.59;;;22.95;41.90
39555;BME280;25231;48.746;9.234;2022-08-11T07:46:19;97114.63;;;22.75;42.75
39555;BME280;25231;48.746;9.234;2022-08-11T07:49:06;97107.78;;;23.51;41.45
39555;BME280;25231;48.746;9.234;2022-08-11T07:51:52;97111.88;;;22.94;42.02
39555;BME280;25231;48.746;9.234;2022-08-11T07:54:36;97108.41;;;22.93;42.14
39555;BME280;25231;48.746;9.234;2022-08-11T07:57:04;97098.47;;;23.21;41.84
39555;BME280;25231;48.746;9.234;2022-08-11T07:59:51;97103.72;;;23.76;40.43
39555;BME280;25231;48.746;9.234;2022-08-11T08:02:36;97098.47;;;23.35;41.55
39555;BME280;25231;48.746;9.234;2022-08-11T08:05:20;97104.03;;;23.96;40.17
39555;BME280;25231;48.746;9.234;2022-08-11T08:08:07;97103.69;;;23.53;40.53
39555;BME280;25231;48.746;9.234;2022-08-11T08:10:53;97099.28;;;23.71;40.29
39555;BME280;25231;48.746;9.234;2022-08-11T08:13:39;97098.97;;;24.17;39.96
39555;BME280;25231;48.746;9.234;2022-08-11T08:16:24;97099.22;;;23.85;39.53
39555;BME280;25231;48.746;9.234;2022-08-11T08:19:14;97093.91;;;23.71;40.15
39555;BME280;25231;48.746;9.234;2022-08-11T08:21:41;97100.66;;;23.91;39.31
39555;BME280;25231;48.746;9.234;2022-08-11T08:24:08;97104.81;;;23.97;39.21
39555;BME280;25231;48.746;9.234;2022-08-11T08:26:34;97109.63;;;23.86;39.01
39555;BME280;25231;48.746;9.234;2022-08-11T08:29:19;97100.56;;;23.96;39.29
39555;BME280;25231;48.746;9.234;2022-08-11T08:32:06;97107.59;;;23.70;39.58
39555;BME280;25231;48.746;9.234;2022-08-11T08:34:34;97106.66;;;24.10;38.72
39555;BME280;25231;48.746;9.234;2022-08-11T08:37:00;97106.22;;;24.17;39.25
39555;BME280;25231;48.746;9.234;2022-08-11T08:39:25;97105.59;;;23.97;39.04
39555;BME280;25231;48.746;9.234;2022-08-11T08:41:56;97115.72;;;23.78;38.40
39555;BME280;25231;48.746;9.234;2022-08-11T08:44:24;97108.47;;;23.79;39.03
39555;BME280;25231;48.746;9.234;2022-08-11T08:46:54;97114.06;;;24.13;38.08
39555;BME280;25231;48.746;9.234;2022-08-11T08:49:25;97101.91;;;23.85;38.93
39555;BME280;25231;48.746;9.234;2022-08-11T08:51:57;97099.47;;;23.97;38.42
39555;BME280;25231;48.746;9.234;2022-08-11T08:54:34;97103.50;;;24.61;37.78
39555;BME280;25231;48.746;9.234;2022-08-11T08:57:02;97103.53;;;24.39;37.90
39555;BME280;25231;48.746;9.234;2022-08-11T08:59:30;97106.94;;;24.09;38.20
39555;BME280;25231;48.746;9.234;2022-08-11T09:02:00;97096.38;;;24.26;37.84
39555;BME280;25231;48.746;9.234;2022-08-11T09:04:26;97103.94;;;24.01;37.64
39555;BME280;25231;48.746;9.234;2022-08-11T09:06:53;97107.72;;;24.23;37.18
39555;BME280;25231;48.746;9.234;2022-08-11T09:09:20;97097.25;;;24.43;36.03
39555;BME280;25231;48.746;9.234;2022-08-11T09:11:47;97099.16;;;24.74;36.17
39555;BME280;25231;48.746;9.234;2022-08-11T09:14:20;97103.56;;;24.48;36.66
39555;BME280;25231;48.746;9.234;2022-08-11T09:16:47;97091.69;;;24.62;36.74
39555;BME280;25231;48.746;9.234;2022-08-11T09:19:15;97091.97;;;24.61;36.99
39555;BME280;25231;48.746;9.234;2022-08-11T09:21:50;97097.56;;;24.81;36.28
39555;BME280;25231;48.746;9.234;2022-08-11T09:24:36;97093.34;;;24.50;37.06
39555;BME280;25231;48.746;9.234;2022-08-11T09:27:21;97102.44;;;24.40;35.72
39555;BME280;25231;48.746;9.234;2022-08-11T09:29:47;97095.81;;;24.37;36.55
39555;BME280;25231;48.746;9.234;2022-08-11T09:32:13;97108.53;;;24.10;35.92
39555;BME280;25231;48.746;9.234;2022-08-11T09:34:39;97104.66;;;24.47;35.42
39555;BME280;25231;48.746;9.234;2022-08-11T09:37:06;97096.63;;;24.47;35.21
39555;BME280;25231;48.746;9.234;2022-08-11T09:39:52;97100.69;;;24.66;34.99
39555;BME280;25231;48.746;9.234;2022-08-11T09:42:37;97096.09;;;24.36;34.84
39555;BME280;25231;48.746;9.234;2022-08-11T09:45:22;97105.31;;;24.83;35.08
39555;BME280;25231;48.746;9.234;2022-08-11T09:47:47;97099.53;;;24.90;33.79
39555;BME280;25231;48.746;9.234;2022-08-11T09:50:14;97091.19;;;25.00;34.17
39555;BME280;25231;48.746;9.234;2022-08-11T09:52:40;97095.34;;;24.75;34.43
39555;BME280;25231;48.746;9.234;2022-08-11T09:55:07;97094.66;;;24.61;34.51
39555;BME280;25231;48.746;9.234;2022-08-11T09:57:39;97100.31;;;24.59;34.55
39555;BME280;25231;48.746;9.234;2022-08-11T10:00:32;97085.16;;;24.46;34.36
39555;BME280;25231;48.746;9.234;2022-08-11T10:03:02;97085.91;;;24.86;34.14
39555;BME280;25231;48.746;9.234;2022-08-11T10:05:31;97081.56;;;24.90;33.84
39555;BME280;25231;48.746;9.234;2022-08-11T10:08:17;97085.53;;;25.01;33.50
39555;BME280;25231;48.746;9.234;2022-08-11T10:10:45;97086.44;;;24.88;34.14
39555;BME280;25231;48.746;9.234;2022-08-11T10:13:19;97096.25;;;25.01;34.29
39555;BME280;25231;48.746;9.234;2022-08-11T10:15:52;97088.81;;;24.98;33.31
39555;BME280;25231;48.746;9.234;2022-08-11T10:18:40;97090.38;;;24.51;33.80
39555;BME280;25231;48.746;9.234;2022-08-11T10:21:30;97083.84;;;24.43;33.37
39555;BME280;25231;48.746;9.234;2022-08-11T10:24:01;97086.00;;;24.33;34.72
39555;BME280;25231;48.746;9.234;2022-08-11T10:26:47;97081.59;;;24.68;34.18
39555;BME280;25231;48.746;9.234;2022-08-11T10:29:24;97073.56;;;24.68;33.80
39555;BME280;25231;48.746;9.234;2022-08-11T10:32:09;97076.25;;;24.68;33.70
39555;BME280;25231;48.746;9.234;2022-08-11T10:34:55;97076.19;;;24.59;33.46
39555;BME280;25231;48.746;9.234;2022-08-11T10:37:22;97075.59;;;24.62;33.02
39555;BME280;25231;48.746;9.234;2022-08-11T10:39:49;97066.28;;;24.99;33.19
39555;BME280;25231;48.746;9.234;2022-08-11T10:42:16;97060.31;;;25.28;32.94
39555;BME280;25231;48.746;9.234;2022-08-11T10:45:03;97063.28;;;25.09;32.53
39555;BME280;25231;48.746;9.234;2022-08-11T10:47:50;97052.28;;;25.28;32.63
39555;BME280;25231;48.746;9.234;2022-08-11T10:50:17;97062.56;;;25.52;32.81
39555;BME280;25231;48.746;9.234;2022-08-11T10:53:01;97051.31;;;25.07;33.22
39555;BME280;25231;48.746;9.234;2022-08-11T10:55:47;97059.47;;;24.93;33.26
39555;BME280;25231;48.746;9.234;2022-08-11T10:58:31;97058.63;;;24.84;33.56
39555;BME280;25231;48.746;9.234;2022-08-11T11:01:12;97050.81;;;25.05;33.39
39555;BME280;25231;48.746;9.234;2022-08-11T11:03:39;97049.06;;;25.09;33.15
39555;BME280;25231;48.746;9.234;2022-08-11T11:06:06;97041.97;;;24.96;32.55
39555;BME280;25231;48.746;9.234;2022-08-11T11:08:42;97037.75;;;25.38;32.27
39555;BME280;25231;48.746;9.234;2022-08-11T11:11:20;97041.22;;;25.38;32.27
39555;BME280;25231;48.746;9.234;2022-08-11T11:13:51;97038.16;;;24.97;32.80
39555;BME280;25231;48.746;9.234;2022-08-11T11:16:36;97034.91;;;25.34;32.14
39555;BME280;25231;48.746;9.234;2022-08-11T11:19:23;97037.75;;;25.55;31.23
39555;BME280;25231;48.746;9.234;2022-08-11T11:21:52;97028.91;;;25.46;31.45
39555;BME280;25231;48.746;9.234;2022-08-11T11:24:43;97034.91;;;25.77;30.89
39555;BME280;25231;48.746;9.234;2022-08-11T11:37:41;97020.84;;;25.80;30.66
39555;BME280;25231;48.746;9.234;2022-08-11T11:40:10;97016.13;;;25.60;30.18
39555;BME280;25231;48.746;9.234;2022-08-11T11:42:38;97014.81;;;25.92;30.10
39555;BME280;25231;48.746;9.234;2022-08-11T11:45:05;97018.28;;;25.92;29.89
39555;BME280;25231;48.746;9.234;2022-08-11T11:47:31;97014.94;;;26.04;29.83
39555;BME280;25231;48.746;9.234;2022-08-11T11:49:57;97008.69;;;25.83;29.11
39555;BME280;25231;48.746;9.234;2022-08-11T11:52:23;96999.94;;;26.03;29.52
39555;BME280;25231;48.746;9.234;2022-08-11T11:54:54;97000.00;;;25.77;29.64
39555;BME280;25231;48.746;9.234;2022-08-11T11:57:21;97000.66;;;25.65;29.85
39555;BME280;25231;48.746;9.234;2022-08-11T12:00:07;96998.53;;;26.05;29.34
39555;BME280;25231;48.746;9.234;2022-08-11T12:02:57;96995.31;;;26.29;29.41
39555;BME280;25231;48.746;9.234;2022-08-11T12:05:24;97001.16;;;26.14;28.95
39555;BME280;25231;48.746;9.234;2022-08-11T12:07:51;96991.63;;;25.70;29.69
39555;BME280;25231;48.746;9.234;2022-08-11T12:10:58;96991.72;;;26.08;29.18
39555;BME280;25231;48.746;9.234;2022-08-11T12:13:46;96992.97;;;26.19;29.50
39555;BME280;25231;48.746;9.234;2022-08-11T12:16:15;96993.44;;;26.13;29.32
39555;BME280;25231;48.746;9.234;2022-08-11T12:18:45;97002.84;;;26.44;29.15
39555;BME280;25231;48.746;9.234;2022-08-11T12:21:13;97000.28;;;26.48;28.37
39555;BME280;25231;48.746;9.234;2022-08-11T12:23:39;96995.94;;;26.26;28.89
39555;BME280;25231;48.746;9.234;2022-08-11T12:26:25;97000.44;;;26.52;28.79
39555;BME280;25231;48.746;9.234;2022-08-11T12:29:10;96999.75;;;26.17;28.08
39555;BME280;25231;48.746;9.234;2022-08-11T12:31:38;96986.78;;;26.19;28.34
39555;BME280;25231;48.746;9.234;2022-08-11T12:34:08;96983.59;;;26.25;28.69
39555;BME280;25231;48.746;9.234;2022-08-11T12:36:36;96982.59;;;26.47;28.00
39555;BME280;25231;48.746;9.234;2022-08-11T12:39:06;96981.97;;;26.41;28.19
39555;BME280;25231;48.746;9.234;2022-08-11T12:41:34;96983.34;;;26.47;27.99
39555;BME280;25231;48.746;9.234;2022-08-11T12:44:22;96977.28;;;26.30;28.41
39555;BME280;25231;48.746;9.234;2022-08-11T12:47:08;96968.25;;;26.34;28.51
39555;BME280;25231;48.746;9.234;2022-08-11T12:49:37;96966.13;;;26.48;27.79
39555;BME280;25231;48.746;9.234;2022-08-11T12:52:26;96958.88;;;26.70;27.78
39555;BME280;25231;48.746;9.234;2022-08-11T12:55:10;96959.06;;;26.94;27.53
39555;BME280;25231;48.746;9.234;2022-08-11T12:57:40;96954.88;;;26.76;27.53
39555;BME280;25231;48.746;9.234;2022-08-11T13:00:25;96939.44;;;26.64;27.85
39555;BME280;25231;48.746;9.234;2022-08-11T13:03:11;96937.03;;;27.01;27.15
39555;BME280;25231;48.746;9.234;2022-08-11T13:05:58;96944.88;;;27.06;27.51
39555;BME280;25231;48.746;9.234;2022-08-11T13:08:25;96948.53;;;26.80;27.30
39555;BME280;25231;48.746;9.234;2022-08-11T13:10:53;96944.91;;;26.76;27.27
39555;BME280;25231;48.746;9.234;2022-08-11T13:13:44;96940.03;;;26.70;27.24
39555;BME280;25231;48.746;9.234;2022-08-11T13:16:11;96947.41;;;26.81;27.27
39555;BME280;25231;48.746;9.234;2022-08-11T13:18:40;96944.38;;;26.83;26.83
39555;BME280;25231;48.746;9.234;2022-08-11T13:21:08;96929.63;;;26.68;27.41
39555;BME280;25231;48.746;9.234;2022-08-11T13:23:37;96924.50;;;26.75;27.36
39555;BME280;25231;48.746;9.234;2022-08-11T13:26:03;96929.34;;;27.11;27.46
39555;BME280;25231;48.746;9.234;2022-08-11T13:28:29;96932.28;;;26.98;27.71
39555;BME280;25231;48.746;9.234;2022-08-11T13:30:55;96932.69;;;27.08;27.48
39555;BME280;25231;48.746;9.234;2022-08-11T13:33:54;96932.22;;;26.56;27.38
39555;BME280;25231;48.746;9.234;2022-08-11T13:36:21;96928.38;;;26.66;27.80
39555;BME280;25231;48.746;9.234;2022-08-11T13:38:52;96927.03;;;26.80;27.15
39555;BME280;25231;48.746;9.234;2022-08-11T13:41:19;96920.59;;;26.94;27.07
39555;BME280;25231;48.746;9.234;2022-08-11T13:44:04;96930.31;;;27.07;27.15
39555;BME280;25231;48.746;9.234;2022-08-11T13:46:31;96930.59;;;27.14;26.86
39555;BME280;25231;48.746;9.234;2022-08-11T13:48:57;96919.81;;;27.14;26.65
39555;BME280;25231;48.746;9.234;2022-08-11T13:51:23;96909.00;;;27.02;26.78
39555;BME280;25231;48.746;9.234;2022-08-11T13:54:04;96913.59;;;27.01;26.56
39555;BME280;25231;48.746;9.234;2022-08-11T13:56:31;96909.91;;;27.06;26.41
39555;BME280;25231;48.746;9.234;2022-08-11T13:58:58;96906.06;;;27.27;26.34
39555;BME280;25231;48.746;9.234;2022-08-11T14:01:31;96911.38;;;27.36;26.27
39555;BME280;25231;48.746;9.234;2022-08-11T14:04:21;96909.78;;;27.02;26.30
39555;BME280;25231;48.746;9.234;2022-08-11T14:06:51;96913.50;;;27.10;26.69
39555;BME280;25231;48.746;9.234;2022-08-11T14:09:29;96907.00;;;27.11;26.79
39555;BME280;25231;48.746;9.234;2022-08-11T14:12:00;96893.97;;;27.01;26.61
39555;BME280;25231;48.746;9.234;2022-08-11T14:14:51;96894.47;;;27.15;26.23
39555;BME280;25231;48.746;9.234;2022-08-11T14:17:20;96889.16;;;27.06;26.26
39555;BME280;25231;48.746;9.234;2022-08-11T14:19:50;96875.28;;;27.16;26.43
39555;BME280;25231;48.746;9.234;2022-08-11T14:22:16;96878.78;;;27.17;26.12
39555;BME280;25231;48.746;9.234;2022-08-11T14:24:44;96877.78;;;27.21;25.94
39555;BME280;25231;48.746;9.234;2022-08-11T14:27:14;96882.63;;;27.28;25.84
39555;BME280;25231;48.746;9.234;2022-08-11T14:29:40;96882.06;;;27.22;26.00
39555;BME280;25231;48.746;9.234;2022-08-11T14:32:09;96897.00;;;27.32;26.01
39555;BME280;25231;48.746;9.234;2022-08-11T14:34:39;96889.28;;;27.10;26.09
39555;BME280;25231;48.746;9.234;2022-08-11T14:37:09;96882.31;;;27.29;26.28
39555;BME280;25231;48.746;9.234;2022-08-11T14:39:44;96888.44;;;27.18;25.92
39555;BME280;25231;48.746;9.234;2022-08-11T14:42:16;96873.09;;;27.51;25.78
39555;BME280;25231;48.746;9.234;2022-08-11T14:45:06;96879.44;;;27.47;25.46
39555;BME280;25231;48.746;9.234;2022-08-11T14:47:53;96876.97;;;27.42;24.81
39555;BME280;25231;48.746;9.234;2022-08-11T14:50:22;96874.91;;;27.39;25.19
39555;BME280;25231;48.746;9.234;2022-08-11T14:53:14;96873.91;;;27.43;25.00
39555;BME280;25231;48.746;9.234;2022-08-11T14:55:41;96877.13;;;27.57;25.21
39555;BME280;25231;48.746;9.234;2022-08-11T14:58:43;96865.00;;;27.51;24.95
39555;BME280;25231;48.746;9.234;2022-08-11T15:01:08;96861.09;;;27.28;24.97
39555;BME280;25231;48.746;9.234;2022-08-11T15:03:55;96860.88;;;27.33;25.25
39555;BME280;25231;48.746;9.234;2022-08-11T15:06:24;96877.34;;;27.31;25.17
39555;BME280;25231;48.746;9.234;2022-08-11T15:08:50;96864.94;;;27.39;24.84
39555;BME280;25231;48.746;9.234;2022-08-11T15:11:21;96854.22;;;27.51;24.74
39555;BME280;25231;48.746;9.234;2022-08-11T15:14:07;96856.25;;;27.66;24.81
39555;BME280;25231;48.746;9.234;2022-08-11T15:16:35;96843.97;;;27.45;24.78
39555;BME280;25231;48.746;9.234;2022-08-11T15:19:20;96838.50;;;27.20;24.61
39555;BME280;25231;48.746;9.234;2022-08-11T15:21:46;96842.53;;;27.14;25.42
39555;BME280;25231;48.746;9.234;2022-08-11T15:24:31;96843.56;;;27.55;25.38
39555;BME280;25231;48.746;9.234;2022-08-11T15:27:00;96834.09;;;27.49;24.77
39555;BME280;25231;48.746;9.234;2022-08-11T15:29:46;96839.25;;;27.42;24.76
39555;BME280;25231;48.746;9.234;2022-08-11T15:32:32;96837.00;;;27.44;24.60
39555;BME280;25231;48.746;9.234;2022-08-11T15:35:18;96834.03;;;27.57;24.62
39555;BME280;25231;48.746;9.234;2022-08-11T15:38:02;96815.25;;;27.49;24.88
39555;BME280;25231;48.746;9.234;2022-08-11T15:40:30;96833.31;;;27.48;25.05
39555;BME280;25231;48.746;9.234;2022-08-11T15:46:18;96833.53;;;27.43;24.67
39555;BME280;25231;48.746;9.234;2022-08-11T15:48:55;96824.84;;;27.25;25.23
39555;BME280;25231;48.746;9.234;2022-08-11T15:54:26;96823.69;;;27.47;24.97
39555;BME280;25231;48.746;9.234;2022-08-11T15:56:56;96817.25;;;27.40;25.20
39555;BME280;25231;48.746;9.234;2022-08-11T15:59:23;96812.41;;;27.33;25.28
39555;BME280;25231;48.746;9.234;2022-08-11T16:02:11;96813.09;;;27.42;25.37
39555;BME280;25231;48.746;9.234;2022-08-11T16:04:58;96815.44;;;27.31;25.23
39555;BME280;25231;48.746;9.234;2022-08-11T16:07:28;96812.63;;;27.28;25.40
39555;BME280;25231;48.746;9.234;2022-08-11T16:09:59;96808.97;;;27.45;25.52
39555;BME280;25231;48.746;9.234;2022-08-11T16:12:42;96814.09;;;27.38;25.48
39555;BME280;25231;48.746;9.234;2022-08-11T16:15:30;96818.03;;;27.28;25.66
39555;BME280;25231;48.746;9.234;2022-08-11T16:18:18;96807.72;;;27.30;25.76
39555;BME280;25231;48.746;9.234;2022-08-11T16:20:44;96806.28;;;27.00;25.59
39555;BME280;25231;48.746;9.234;2022-08-11T16:23:12;96802.25;;;27.06;25.67
39555;BME280;25231;48.746;9.234;2022-08-11T16:25:40;96809.00;;;27.12;25.36
39555;BME280;25231;48.746;9.234;2022-08-11T16:28:09;96798.50;;;27.19;25.51
39555;BME280;25231;48.746;9.234;2022-08-11T16:30:39;96791.41;;;27.14;26.04
39555;BME280;25231;48.746;9.234;2022-08-11T16:33:06;96802.09;;;27.23;25.84
39555;BME280;25231;48.746;9.234;2022-08-11T16:35:35;96806.56;;;27.19;25.88
39555;BME280;25231;48.746;9.234;2022-08-11T16:38:25;96803.41;;;27.17;25.93
39555;BME280;25231;48.746;9.234;2022-08-11T16:41:09;96799.41;;;26.90;25.93
39555;BME280;25231;48.746;9.234;2022-08-11T16:43:45;96796.06;;;26.93;26.01
39555;BME280;25231;48.746;9.234;2022-08-11T16:46:30;96798.09;;;26.96;25.71
39555;BME280;25231;48.746;9.234;2022-08-11T16:49:18;96792.91;;;26.91;25.88